createdAt,value
2022-09-02T05:02:58.061Z,20.30
2022-09-02T05:08:04.682Z,20.40
2022-09-02T05:13:08.641Z,20.40
2022-09-02T05:18:13.872Z,20.50
2022-09-02T05:23:17.592Z,20.50
2022-09-02T05:28:22.688Z,20.50
2022-09-02T05:33:28.626Z,20.50
2022-09-02T05:38:32.587Z,20.50
2022-09-02T05:43:38.144Z,20.40
2022-09-02T05:49:00.541Z,20.20
2022-09-02T05:54:04.986Z,20.30
2022-09-02T05:59:10.297Z,20.20
2022-09-02T06:04:17.122Z,20.10
2022-09-02T06:09:24.148Z,20.10
2022-09-02T06:14:28.257Z,20.20
2022-09-02T06:19:33.696Z,20.30
2022-09-02T06:24:38.538Z,20.40
2022-09-02T06:29:42.843Z,20.50
2022-09-02T06:34:48.105Z,20.60
2022-09-02T06:39:52.019Z,20.60
2022-09-02T06:44:57.904Z,20.60
2022-09-02T06:50:03.330Z,20.60
2022-09-02T06:55:08.257Z,20.50
2022-09-02T07:00:12.458Z,20.40
2022-09-02T07:05:19.163Z,20.40
2022-09-02T07:10:23.510Z,20.50
2022-09-02T07:15:27.331Z,20.60
2022-09-02T07:20:32.499Z,20.60
2022-09-02T07:25:36.365Z,20.50
2022-09-02T07:30:43.254Z,20.50
2022-09-02T07:35:49.355Z,20.60
2022-09-02T07:40:57.045Z,20.60
2022-09-02T07:46:02.750Z,20.80
2022-09-02T07:51:08.230Z,21.00
2022-09-02T07:56:14.921Z,21.00
2022-09-02T08:01:23.554Z,21.20
2022-09-02T08:06:34.553Z,21.20
2022-09-02T08:11:39.853Z,21.40
2022-09-02T08:16:43.650Z,21.50
2022-09-02T08:21:48.606Z,21.60
2022-09-02T08:26:52.254Z,21.70
2022-09-02T08:31:55.835Z,21.80
2022-09-02T08:37:00.771Z,21.90
2022-09-02T08:42:09.904Z,22.10
2022-09-02T08:47:19.071Z,22.10
2022-09-02T08:52:31.132Z,22.20
2022-09-02T08:57:34.903Z,22.40
2022-09-02T09:02:58.003Z,22.50
2022-09-02T09:08:13.968Z,22.60
2022-09-02T09:13:43.716Z,22.80
2022-09-02T09:18:57.425Z,22.80
2022-09-02T09:24:07.893Z,22.80
2022-09-02T09:29:11.479Z,22.80
2022-09-02T09:34:15.393Z,22.80
2022-09-02T09:39:24.442Z,22.70
2022-09-02T09:44:45.876Z,22.80
2022-09-02T09:49:51.468Z,22.80
2022-09-02T09:55:15.815Z,22.90
2022-09-02T10:00:32.071Z,23.10
2022-09-02T10:05:37.621Z,23.20
2022-09-02T10:10:57.553Z,23.50
2022-09-02T10:16:17.053Z,23.70
2022-09-02T10:21:34.496Z,24.00
2022-09-02T10:26:43.373Z,24.20
2022-09-02T10:31:56.263Z,24.40
2022-09-02T10:37:19.206Z,24.70
2022-09-02T10:42:32.186Z,25.10
2022-09-02T10:47:38.508Z,25.30
2022-09-02T10:53:09.758Z,25.50
2022-09-02T10:58:22.979Z,25.50
2022-09-02T11:03:33.730Z,25.60
2022-09-02T11:08:41.037Z,25.80
2022-09-02T11:13:58.449Z,26.00
2022-09-02T11:19:06.999Z,26.30
2022-09-02T11:24:16.017Z,26.40
2022-09-02T11:29:27.844Z,26.30
2022-09-02T11:34:38.635Z,26.20
2022-09-02T11:40:02.374Z,26.30
2022-09-02T11:45:24.828Z,26.10
2022-09-02T11:50:59.726Z,26.00
2022-09-02T11:56:07.216Z,26.00
2022-09-02T12:01:29.019Z,25.90
2022-09-02T12:06:33.499Z,25.80
2022-09-02T12:11:48.991Z,25.50
2022-09-02T12:17:03.772Z,25.50
2022-09-02T12:22:27.812Z,25.30
2022-09-02T12:27:36.674Z,25.20
2022-09-02T12:33:13.488Z,25.20
2022-09-02T12:38:34.447Z,25.30
2022-09-02T12:43:48.725Z,25.30
2022-09-02T12:49:00.741Z,25.30
2022-09-02T12:54:05.691Z,25.50
2022-09-02T12:59:09.636Z,25.70
2022-09-02T13:04:33.930Z,26.00
2022-09-02T13:10:09.076Z,26.20
2022-09-02T13:15:47.658Z,26.10
2022-09-02T13:21:07.907Z,26.00
2022-09-02T13:26:48.428Z,26.10
2022-09-02T13:32:01.584Z,26.20
2022-09-02T13:37:10.591Z,26.20
2022-09-02T13:42:18.941Z,26.20
2022-09-02T13:47:23.224Z,26.30
2022-09-02T13:53:12.335Z,26.40
2022-09-02T13:57:58.652Z,26.40
2022-09-02T14:03:05.722Z,26.50
2022-09-02T14:08:15.150Z,26.40
2022-09-02T14:13:19.097Z,26.40
2022-09-02T14:18:25.570Z,26.40
2022-09-02T14:23:34.095Z,26.30
2022-09-02T14:28:37.827Z,26.00
2022-09-02T14:33:44.263Z,25.80
2022-09-02T14:38:55.443Z,25.60
2022-09-02T14:44:00.590Z,25.50
2022-09-02T14:49:07.146Z,25.50
2022-09-02T14:54:12.713Z,25.50
2022-09-02T14:59:16.458Z,25.50
2022-09-02T15:04:20.717Z,25.50
2022-09-02T15:09:25.417Z,25.40
2022-09-02T15:14:28.933Z,25.20
2022-09-02T15:19:33.296Z,25.10
2022-09-02T15:24:38.064Z,25.00
2022-09-02T15:29:41.928Z,24.90
2022-09-02T15:34:45.570Z,24.90
2022-09-02T15:39:51.847Z,24.80
2022-09-02T15:44:55.465Z,24.80
2022-09-02T15:49:59.210Z,24.90
2022-09-02T15:55:04.873Z,25.10
2022-09-02T16:00:10.883Z,25.20
2022-09-02T16:05:14.774Z,25.30
2022-09-02T16:10:19.853Z,25.40
2022-09-02T16:15:23.458Z,25.50
2022-09-02T16:20:27.098Z,25.40
2022-09-02T16:25:32.073Z,25.40
2022-09-02T16:30:35.647Z,25.30
2022-09-02T16:35:39.247Z,25.30
2022-09-02T16:40:51.304Z,25.40
2022-09-02T16:45:56.939Z,25.30
2022-09-02T16:51:04.414Z,25.00
2022-09-02T16:56:13.232Z,24.70
2022-09-02T17:01:17.745Z,24.40
2022-09-02T17:06:21.320Z,24.20
2022-09-02T17:11:28.824Z,23.90
2022-09-02T17:16:34.516Z,23.60
2022-09-02T17:21:40.460Z,23.40
2022-09-02T17:26:48.452Z,23.20
2022-09-02T17:31:52.566Z,23.10
2022-09-02T17:36:56.420Z,23.10
2022-09-02T17:42:02.144Z,23.00
2022-09-02T17:47:08.189Z,23.00
2022-09-02T17:52:13.845Z,22.90
2022-09-02T17:57:42.773Z,22.80
2022-09-02T18:03:26.301Z,22.80
2022-09-02T18:08:36.635Z,22.80
2022-09-02T18:13:54.570Z,22.80
2022-09-02T18:19:13.067Z,22.70
2022-09-02T18:24:26.512Z,22.60
2022-09-02T18:29:45.255Z,22.60
2022-09-02T18:34:59.171Z,22.50
2022-09-02T18:40:16.745Z,22.30
2022-09-02T18:45:26.234Z,22.30
2022-09-02T18:50:52.000Z,22.20
2022-09-02T18:55:57.319Z,22.20
2022-09-02T19:01:06.254Z,22.20
2022-09-02T19:06:17.448Z,22.20
2022-09-02T19:11:22.080Z,22.10
2022-09-02T19:16:29.235Z,22.10
2022-09-02T19:21:36.743Z,22.10
2022-09-02T19:26:41.455Z,22.00
2022-09-02T19:31:46.828Z,21.90
2022-09-02T19:36:52.608Z,21.80
2022-09-02T19:41:56.125Z,21.80
2022-09-02T19:52:27.575Z,21.90
2022-09-02T19:57:31.234Z,21.90
2022-09-02T20:02:36.378Z,21.90
2022-09-02T20:07:42.784Z,22.00
2022-09-02T20:12:47.094Z,21.90
2022-09-02T20:17:52.223Z,21.90
2022-09-02T20:22:57.564Z,21.90
2022-09-02T20:28:13.988Z,21.80
2022-09-02T20:33:22.025Z,21.80
2022-09-02T20:39:05.601Z,21.70
2022-09-02T20:44:23.563Z,21.70
2022-09-02T20:49:42.272Z,21.70
2022-09-02T20:54:49.510Z,21.70
2022-09-02T21:00:02.270Z,21.60
2022-09-02T21:05:12.764Z,21.50
2022-09-02T21:10:23.079Z,21.40
2022-09-02T21:15:30.667Z,21.40
2022-09-02T21:20:47.109Z,21.50
2022-09-02T21:25:55.920Z,21.50
2022-09-02T21:31:04.154Z,21.60
2022-09-02T21:36:13.198Z,21.60
2022-09-02T21:41:31.656Z,21.70
2022-09-02T21:46:48.134Z,21.60
2022-09-02T21:52:03.471Z,21.60
2022-09-02T21:57:20.046Z,21.60
2022-09-02T22:02:35.345Z,21.60
2022-09-02T22:07:44.366Z,21.60
2022-09-02T22:12:52.505Z,21.50
2022-09-02T22:18:04.125Z,21.50
2022-09-02T22:23:23.767Z,21.50
2022-09-02T22:28:35.195Z,21.50
